sensor_id;sensor_type;location;lat;lon;timestamp;pressure;altitude;pressure_sealevel;temperature;humidity
34961;BME280;30789;52.030;7.110;2023-07-31T00:01:29;100249.72;;;15.29;90.55
34961;BME280;30789;52.030;7.110;2023-07-31T00:03:55;100247.84;;;15.23;90.30
34961;BME280;30789;52.030;7.110;2023-07-31T00:06:22;100253.19;;;15.14;89.57
34961;BME280;30789;52.030;7.110;2023-07-31T00:08:48;100249.81;;;15.03;90.22
34961;BME280;30789;52.030;7.110;2023-07-31T00:11:16;100244.47;;;15.12;90.71
34961;BME280;30789;52.030;7.110;2023-07-31T00:13:43;100242.19;;;15.07;90.78
34961;BME280;30789;52.030;7.110;2023-07-31T00:16:09;100243.78;;;15.08;91.41
34961;BME280;30789;52.030;7.110;2023-07-31T00:18:35;100232.97;;;15.13;91.03
34961;BME280;30789;52.030;7.110;2023-07-31T00:21:02;100232.97;;;15.13;91.23
34961;BME280;30789;52.030;7.110;2023-07-31T00:23:29;100228.75;;;15.05;91.20
34961;BME280;30789;52.030;7.110;2023-07-31T00:25:55;100233.69;;;15.17;91.99
34961;BME280;30789;52.030;7.110;2023-07-31T00:28:23;100241.28;;;15.13;91.39
34961;BME280;30789;52.030;7.110;2023-07-31T00:30:50;100225.38;;;15.17;91.76
34961;BME280;30789;52.030;7.110;2023-07-31T00:33:16;100223.44;;;15.14;91.66
34961;BME280;30789;52.030;7.110;2023-07-31T00:35:43;100224.63;;;15.13;92.39
34961;BME280;30789;52.030;7.110;2023-07-31T00:38:09;100234.44;;;15.18;92.78
34961;BME280;30789;52.030;7.110;2023-07-31T00:40:36;100228.25;;;15.10;92.04
34961;BME280;30789;52.030;7.110;2023-07-31T00:43:03;100223.78;;;15.16;91.77
34961;BME280;30789;52.030;7.110;2023-07-31T00:45:32;100224.03;;;15.02;92.36
34961;BME280;30789;52.030;7.110;2023-07-31T00:47:58;100218.50;;;15.02;92.78
34961;BME280;30789;52.030;7.110;2023-07-31T00:50:25;100216.09;;;15.04;93.08
34961;BME280;30789;52.030;7.110;2023-07-31T00:52:53;100218.50;;;15.02;92.70
34961;BME280;30789;52.030;7.110;2023-07-31T00:55:19;100220.09;;;15.03;92.86
34961;BME280;30789;52.030;7.110;2023-07-31T00:57:47;100218.88;;;15.04;92.55
34961;BME280;30789;52.030;7.110;2023-07-31T01:00:14;100210.91;;;15.06;93.27
34961;BME280;30789;52.030;7.110;2023-07-31T01:02:42;100221.56;;;15.08;93.19
34961;BME280;30789;52.030;7.110;2023-07-31T01:05:09;100217.38;;;15.00;93.47
34961;BME280;30789;52.030;7.110;2023-07-31T01:07:42;100212.03;;;15.09;93.71
34961;BME280;30789;52.030;7.110;2023-07-31T01:10:16;100215.59;;;15.09;93.42
34961;BME280;30789;52.030;7.110;2023-07-31T01:12:45;100213.31;;;15.04;93.71
34961;BME280;30789;52.030;7.110;2023-07-31T01:15:12;100203.06;;;15.01;94.14
34961;BME280;30789;52.030;7.110;2023-07-31T01:17:42;100205.41;;;15.03;94.04
34961;BME280;30789;52.030;7.110;2023-07-31T01:20:11;100187.06;;;15.09;93.92
34961;BME280;30789;52.030;7.110;2023-07-31T01:23:22;100185.72;;;15.17;93.60
34961;BME280;30789;52.030;7.110;2023-07-31T01:26:04;100185.78;;;15.13;94.26
34961;BME280;30789;52.030;7.110;2023-07-31T01:28:39;100178.94;;;14.98;94.50
34961;BME280;30789;52.030;7.110;2023-07-31T01:31:09;100178.88;;;15.02;94.98
34961;BME280;30789;52.030;7.110;2023-07-31T01:33:37;100178.78;;;15.05;94.47
34961;BME280;30789;52.030;7.110;2023-07-31T01:36:04;100178.09;;;15.01;94.23
34961;BME280;30789;52.030;7.110;2023-07-31T01:38:31;100173.34;;;15.02;95.26
34961;BME280;30789;52.030;7.110;2023-07-31T01:40:57;100165.44;;;15.00;95.34
34961;BME280;30789;52.030;7.110;2023-07-31T01:43:25;100174.47;;;15.04;94.43
34961;BME280;30789;52.030;7.110;2023-07-31T01:45:52;100169.97;;;15.10;94.35
34961;BME280;30789;52.030;7.110;2023-07-31T01:48:19;100169.47;;;15.15;94.92
34961;BME280;30789;52.030;7.110;2023-07-31T01:53:24;100155.53;;;15.19;95.07
34961;BME280;30789;52.030;7.110;2023-07-31T01:55:50;100157.94;;;15.17;95.07
34961;BME280;30789;52.030;7.110;2023-07-31T01:58:17;100154.06;;;15.14;95.48
34961;BME280;30789;52.030;7.110;2023-07-31T02:00:45;100147.22;;;15.19;95.81
34961;BME280;30789;52.030;7.110;2023-07-31T02:03:11;100150.25;;;15.24;95.48
34961;BME280;30789;52.030;7.110;2023-07-31T02:05:44;100152.75;;;15.38;95.95
34961;BME280;30789;52.030;7.110;2023-07-31T02:08:10;100149.91;;;15.42;96.23
34961;BME280;30789;52.030;7.110;2023-07-31T02:10:37;100149.75;;;15.49;95.68
34961;BME280;30789;52.030;7.110;2023-07-31T02:13:03;100142.41;;;15.59;95.97
34961;BME280;30789;52.030;7.110;2023-07-31T02:15:30;100140.13;;;15.54;96.21
34961;BME280;30789;52.030;7.110;2023-07-31T02:17:57;100137.47;;;15.66;96.03
34961;BME280;30789;52.030;7.110;2023-07-31T02:20:24;100134.31;;;15.64;96.57
34961;BME280;30789;52.030;7.110;2023-07-31T02:22:51;100136.59;;;15.69;96.54
34961;BME280;30789;52.030;7.110;2023-07-31T02:25:17;100126.34;;;15.82;96.06
34961;BME280;30789;52.030;7.110;2023-07-31T02:27:44;100131.91;;;15.82;96.01
34961;BME280;30789;52.030;7.110;2023-07-31T02:30:11;100127.84;;;15.87;95.56
34961;BME280;30789;52.030;7.110;2023-07-31T02:32:37;100123.75;;;15.91;95.84
34961;BME280;30789;52.030;7.110;2023-07-31T02:35:06;100128.72;;;16.00;95.38
34961;BME280;30789;52.030;7.110;2023-07-31T02:37:33;100120.03;;;15.98;95.28
34961;BME280;30789;52.030;7.110;2023-07-31T02:40:00;100116.13;;;15.95;95.44
34961;BME280;30789;52.030;7.110;2023-07-31T02:42:26;100121.41;;;16.06;94.54
34961;BME280;30789;52.030;7.110;2023-07-31T02:44:53;100109.34;;;16.12;94.81
34961;BME280;30789;52.030;7.110;2023-07-31T02:47:21;100109.34;;;16.12;94.19
34961;BME280;30789;52.030;7.110;2023-07-31T02:49:47;100115.59;;;16.16;93.80
34961;BME280;30789;52.030;7.110;2023-07-31T02:52:15;100109.44;;;16.09;94.69
34961;BME280;30789;52.030;7.110;2023-07-31T02:54:42;100107.75;;;16.11;94.00
34961;BME280;30789;52.030;7.110;2023-07-31T02:57:08;100114.28;;;16.21;94.04
34961;BME280;30789;52.030;7.110;2023-07-31T02:59:35;100111.78;;;16.10;94.33
34961;BME280;30789;52.030;7.110;2023-07-31T03:02:01;100108.47;;;16.15;93.61
34961;BME280;30789;52.030;7.110;2023-07-31T03:04:28;100105.69;;;16.15;93.91
34961;BME280;30789;52.030;7.110;2023-07-31T03:06:54;100102.03;;;16.18;93.42
34961;BME280;30789;52.030;7.110;2023-07-31T03:09:22;100101.97;;;16.22;93.62
34961;BME280;30789;52.030;7.110;2023-07-31T03:11:49;100101.59;;;16.20;93.12
34961;BME280;30789;52.030;7.110;2023-07-31T03:14:15;100087.53;;;16.11;93.38
34961;BME280;30789;52.030;7.110;2023-07-31T03:16:42;100091.63;;;16.06;93.57
34961;BME280;30789;52.030;7.110;2023-07-31T03:19:08;100095.78;;;16.14;93.77
34961;BME280;30789;52.030;7.110;2023-07-31T03:21:35;100102.56;;;16.13;93.01
34961;BME280;30789;52.030;7.110;2023-07-31T03:24:01;100100.66;;;16.10;93.42
34961;BME280;30789;52.030;7.110;2023-07-31T03:26:30;100104.13;;;16.14;92.36
34961;BME280;30789;52.030;7.110;2023-07-31T03:28:57;100099.44;;;16.11;93.22
34961;BME280;30789;52.030;7.110;2023-07-31T03:31:24;100089.25;;;16.21;92.26
34961;BME280;30789;52.030;7.110;2023-07-31T03:33:50;100088.47;;;16.20;92.26
34961;BME280;30789;52.030;7.110;2023-07-31T03:36:17;100090.75;;;16.09;92.84
34961;BME280;30789;52.030;7.110;2023-07-31T03:38:43;100096.66;;;16.11;93.50
34961;BME280;30789;52.030;7.110;2023-07-31T03:41:10;100100.56;;;16.14;92.71
34961;BME280;30789;52.030;7.110;2023-07-31T03:43:38;100106.81;;;16.18;92.20
34961;BME280;30789;52.030;7.110;2023-07-31T03:46:04;100090.03;;;16.21;91.50
34961;BME280;30789;52.030;7.110;2023-07-31T03:48:31;100091.69;;;16.19;91.62
34961;BME280;30789;52.030;7.110;2023-07-31T03:50:57;100092.22;;;16.14;92.45
34961;BME280;30789;52.030;7.110;2023-07-31T03:53:24;100090.66;;;16.13;92.90
34961;BME280;30789;52.030;7.110;2023-07-31T03:55:50;100090.22;;;16.14;91.94
34961;BME280;30789;52.030;7.110;2023-07-31T03:58:17;100104.31;;;16.23;90.80
34961;BME280;30789;52.030;7.110;2023-07-31T04:00:45;100104.63;;;16.25;90.27
34961;BME280;30789;52.030;7.110;2023-07-31T04:03:12;100108.81;;;16.17;90.47
34961;BME280;30789;52.030;7.110;2023-07-31T04:05:38;100107.44;;;16.09;90.03
34961;BME280;30789;52.030;7.110;2023-07-31T04:08:06;100115.41;;;16.07;90.16
34961;BME280;30789;52.030;7.110;2023-07-31T04:10:32;100109.34;;;16.12;89.72
34961;BME280;30789;52.030;7.110;2023-07-31T04:12:59;100101.09;;;16.09;89.84
34961;BME280;30789;52.030;7.110;2023-07-31T04:15:25;100107.78;;;15.95;90.45
34961;BME280;30789;52.030;7.110;2023-07-31T04:17:53;100114.56;;;16.10;90.09
34961;BME280;30789;52.030;7.110;2023-07-31T04:20:20;100111.34;;;16.12;90.10
34961;BME280;30789;52.030;7.110;2023-07-31T04:22:46;100115.41;;;16.07;89.54
34961;BME280;30789;52.030;7.110;2023-07-31T04:25:13;100109.50;;;16.05;90.02
34961;BME280;30789;52.030;7.110;2023-07-31T04:27:39;100101.59;;;16.04;89.60
34961;BME280;30789;52.030;7.110;2023-07-31T04:30:07;100100.28;;;16.08;89.17
34961;BME280;30789;52.030;7.110;2023-07-31T04:32:33;100106.03;;;16.01;89.05
34961;BME280;30789;52.030;7.110;2023-07-31T04:35:02;100104.81;;;16.02;89.28
34961;BME280;30789;52.030;7.110;2023-07-31T04:37:28;100107.59;;;16.02;88.58
34961;BME280;30789;52.030;7.110;2023-07-31T04:39:55;100118.91;;;15.95;88.73
34961;BME280;30789;52.030;7.110;2023-07-31T04:42:21;100115.41;;;16.07;87.73
34961;BME280;30789;52.030;7.110;2023-07-31T04:44:47;100107.44;;;15.93;88.33
34961;BME280;30789;52.030;7.110;2023-07-31T04:47:14;100114.81;;;16.00;88.75
34961;BME280;30789;52.030;7.110;2023-07-31T04:49:41;100114.97;;;15.93;88.69
34961;BME280;30789;52.030;7.110;2023-07-31T04:52:08;100106.47;;;16.00;88.02
34961;BME280;30789;52.030;7.110;2023-07-31T04:54:35;100104.50;;;16.00;87.71
34961;BME280;30789;52.030;7.110;2023-07-31T04:57:02;100113.34;;;15.95;89.13
34961;BME280;30789;52.030;7.110;2023-07-31T04:59:28;100099.84;;;16.10;87.88
34961;BME280;30789;52.030;7.110;2023-07-31T05:01:54;100107.16;;;16.04;87.30
34961;BME280;30789;52.030;7.110;2023-07-31T05:04:21;100095.53;;;15.93;87.53
34961;BME280;30789;52.030;7.110;2023-07-31T05:06:47;100093.28;;;15.88;88.86
34961;BME280;30789;52.030;7.110;2023-07-31T05:09:15;100100.41;;;15.89;87.98
34961;BME280;30789;52.030;7.110;2023-07-31T05:11:42;100088.78;;;15.94;88.35
34961;BME280;30789;52.030;7.110;2023-07-31T05:14:08;100093.03;;;15.98;87.65
34961;BME280;30789;52.030;7.110;2023-07-31T05:16:35;100093.88;;;16.11;86.77
34961;BME280;30789;52.030;7.110;2023-07-31T05:19:01;100093.19;;;16.07;87.17
34961;BME280;30789;52.030;7.110;2023-07-31T05:21:28;100096.31;;;16.09;86.91
34961;BME280;30789;52.030;7.110;2023-07-31T05:23:54;100088.94;;;16.03;87.43
34961;BME280;30789;52.030;7.110;2023-07-31T05:26:22;100093.19;;;16.07;87.06
34961;BME280;30789;52.030;7.110;2023-07-31T05:28:49;100085.38;;;16.02;87.40
34961;BME280;30789;52.030;7.110;2023-07-31T05:31:15;100083.97;;;16.10;86.82
34961;BME280;30789;52.030;7.110;2023-07-31T05:33:42;100084.59;;;16.02;87.19
34961;BME280;30789;52.030;7.110;2023-07-31T05:36:08;100088.16;;;16.02;87.54
34961;BME280;30789;52.030;7.110;2023-07-31T05:38:35;100084.41;;;16.09;87.61
34961;BME280;30789;52.030;7.110;2023-07-31T05:41:01;100083.81;;;16.01;88.36
34961;BME280;30789;52.030;7.110;2023-07-31T05:43:29;100080.00;;;15.95;88.70
34961;BME280;30789;52.030;7.110;2023-07-31T05:45:56;100081.19;;;15.94;89.74
34961;BME280;30789;52.030;7.110;2023-07-31T05:48:22;100077.56;;;15.97;89.36
34961;BME280;30789;52.030;7.110;2023-07-31T05:50:48;100078.84;;;15.93;90.33
34961;BME280;30789;52.030;7.110;2023-07-31T05:53:15;100065.31;;;15.95;90.59
34961;BME280;30789;52.030;7.110;2023-07-31T05:55:41;100054.03;;;16.02;89.22
34961;BME280;30789;52.030;7.110;2023-07-31T05:58:08;100050.38;;;16.05;89.63
34961;BME280;30789;52.030;7.110;2023-07-31T06:00:36;100055.06;;;16.08;89.25
34961;BME280;30789;52.030;7.110;2023-07-31T06:03:02;100045.25;;;16.03;90.38
34961;BME280;30789;52.030;7.110;2023-07-31T06:05:29;100044.81;;;16.05;89.55
34961;BME280;30789;52.030;7.110;2023-07-31T06:07:56;100050.63;;;16.10;89.68
34961;BME280;30789;52.030;7.110;2023-07-31T06:10:23;100049.66;;;16.17;89.75
34961;BME280;30789;52.030;7.110;2023-07-31T06:12:49;100054.41;;;16.32;88.60
34961;BME280;30789;52.030;7.110;2023-07-31T06:15:16;100054.09;;;16.43;87.96
34961;BME280;30789;52.030;7.110;2023-07-31T06:17:44;100038.38;;;16.36;88.75
34961;BME280;30789;52.030;7.110;2023-07-31T06:20:11;100050.63;;;16.39;89.27
34961;BME280;30789;52.030;7.110;2023-07-31T06:22:38;100049.75;;;16.42;88.89
34961;BME280;30789;52.030;7.110;2023-07-31T06:25:05;100042.63;;;16.41;88.85
34961;BME280;30789;52.030;7.110;2023-07-31T06:27:31;100042.19;;;16.42;89.02
34961;BME280;30789;52.030;7.110;2023-07-31T06:29:58;100047.41;;;16.40;89.54
34961;BME280;30789;52.030;7.110;2023-07-31T06:32:24;100046.97;;;16.42;89.60
34961;BME280;30789;52.030;7.110;2023-07-31T06:34:52;100057.16;;;16.48;89.22
34961;BME280;30789;52.030;7.110;2023-07-31T06:37:19;100044.84;;;16.49;89.01
34961;BME280;30789;52.030;7.110;2023-07-31T06:39:45;100057.59;;;16.47;89.29
34961;BME280;30789;52.030;7.110;2023-07-31T06:42:12;100050.19;;;16.40;89.28
34961;BME280;30789;52.030;7.110;2023-07-31T06:44:38;100046.81;;;16.33;90.61
34961;BME280;30789;52.030;7.110;2023-07-31T06:47:05;100038.69;;;16.26;91.44
34961;BME280;30789;52.030;7.110;2023-07-31T06:49:34;100051.91;;;16.22;92.35
34961;BME280;30789;52.030;7.110;2023-07-31T06:52:02;100038.97;;;16.15;93.49
34961;BME280;30789;52.030;7.110;2023-07-31T06:54:29;100034.28;;;16.12;93.69
34961;BME280;30789;52.030;7.110;2023-07-31T06:56:55;100036.63;;;16.14;94.26
34961;BME280;30789;52.030;7.110;2023-07-31T06:59:22;100033.94;;;16.10;95.21
34961;BME280;30789;52.030;7.110;2023-07-31T07:01:48;100029.41;;;16.16;94.78
34961;BME280;30789;52.030;7.110;2023-07-31T07:04:14;100022.03;;;16.10;95.45
34961;BME280;30789;52.030;7.110;2023-07-31T07:06:41;100030.03;;;16.08;95.74
34961;BME280;30789;52.030;7.110;2023-07-31T07:09:09;100027.50;;;16.13;95.82
34961;BME280;30789;52.030;7.110;2023-07-31T07:11:35;100021.16;;;16.13;95.86
34961;BME280;30789;52.030;7.110;2023-07-31T07:14:02;100021.84;;;16.17;96.05
34961;BME280;30789;52.030;7.110;2023-07-31T07:16:29;100023.03;;;16.32;95.13
34961;BME280;30789;52.030;7.110;2023-07-31T07:18:55;100007.56;;;16.31;95.31
34961;BME280;30789;52.030;7.110;2023-07-31T07:21:22;100008.69;;;16.33;95.50
34961;BME280;30789;52.030;7.110;2023-07-31T07:23:49;100009.63;;;16.43;95.53
34961;BME280;30789;52.030;7.110;2023-07-31T07:26:17;100010.75;;;16.45;94.04
34961;BME280;30789;52.030;7.110;2023-07-31T07:28:43;100007.13;;;16.32;95.00
34961;BME280;30789;52.030;7.110;2023-07-31T07:31:10;100004.00;;;16.30;95.74
34961;BME280;30789;52.030;7.110;2023-07-31T07:33:36;99999.81;;;16.38;95.04
34961;BME280;30789;52.030;7.110;2023-07-31T07:36:03;99996.06;;;16.45;95.41
34961;BME280;30789;52.030;7.110;2023-07-31T07:38:31;99996.31;;;16.50;95.31
34961;BME280;30789;52.030;7.110;2023-07-31T07:40:58;100003.13;;;16.62;94.83
34961;BME280;30789;52.030;7.110;2023-07-31T07:43:25;99996.34;;;16.75;94.74
34961;BME280;30789;52.030;7.110;2023-07-31T07:45:52;100003.94;;;16.75;93.83
34961;BME280;30789;52.030;7.110;2023-07-31T07:48:18;99993.88;;;16.65;95.10
34961;BME280;30789;52.030;7.110;2023-07-31T07:53:22;99995.69;;;16.71;95.54
34961;BME280;30789;52.030;7.110;2023-07-31T07:55:49;99990.34;;;16.64;95.53
34961;BME280;30789;52.030;7.110;2023-07-31T07:58:15;99990.53;;;16.57;96.63
34961;BME280;30789;52.030;7.110;2023-07-31T08:00:48;99985.88;;;16.67;96.70
34961;BME280;30789;52.030;7.110;2023-07-31T08:03:14;99995.56;;;16.62;95.85
34961;BME280;30789;52.030;7.110;2023-07-31T08:05:42;99980.97;;;16.71;95.63
34961;BME280;30789;52.030;7.110;2023-07-31T08:08:13;99977.31;;;16.74;95.58
34961;BME280;30789;52.030;7.110;2023-07-31T08:10:40;99978.22;;;16.83;95.88
34961;BME280;30789;52.030;7.110;2023-07-31T08:13:07;99977.91;;;17.06;95.02
34961;BME280;30789;52.030;7.110;2023-07-31T08:15:33;99967.56;;;17.07;93.99
34961;BME280;30789;52.030;7.110;2023-07-31T08:18:01;99969.78;;;16.99;94.98
34961;BME280;30789;52.030;7.110;2023-07-31T08:20:28;99957.75;;;17.02;94.16
34961;BME280;30789;52.030;7.110;2023-07-31T08:22:54;99963.31;;;17.02;94.55
34961;BME280;30789;52.030;7.110;2023-07-31T08:25:21;99958.22;;;17.01;94.03
34961;BME280;30789;52.030;7.110;2023-07-31T08:27:47;99951.50;;;16.98;94.85
34961;BME280;30789;52.030;7.110;2023-07-31T08:30:14;99952.84;;;17.06;95.30
34961;BME280;30789;52.030;7.110;2023-07-31T08:32:40;99935.50;;;17.02;94.34
34961;BME280;30789;52.030;7.110;2023-07-31T08:35:08;99943.16;;;16.98;95.51
34961;BME280;30789;52.030;7.110;2023-07-31T08:37:35;99946.06;;;17.08;94.57
34961;BME280;30789;52.030;7.110;2023-07-31T08:40:01;99945.06;;;17.14;94.09
34961;BME280;30789;52.030;7.110;2023-07-31T08:42:28;99943.41;;;17.17;94.10
34961;BME280;30789;52.030;7.110;2023-07-31T08:44:55;99941.59;;;17.23;93.73
34961;BME280;30789;52.030;7.110;2023-07-31T08:47:23;99941.41;;;17.04;94.59
34961;BME280;30789;52.030;7.110;2023-07-31T08:49:51;99939.38;;;17.18;95.05
34961;BME280;30789;52.030;7.110;2023-07-31T08:52:20;99942.59;;;17.29;94.31
34961;BME280;30789;52.030;7.110;2023-07-31T08:54:46;99952.84;;;17.19;94.19
34961;BME280;30789;52.030;7.110;2023-07-31T08:57:13;99948.28;;;17.00;94.99
34961;BME280;30789;52.030;7.110;2023-07-31T08:59:41;99936.03;;;17.10;94.68
34961;BME280;30789;52.030;7.110;2023-07-31T09:02:09;99947.19;;;16.97;95.25
34961;BME280;30789;52.030;7.110;2023-07-31T09:04:36;99945.84;;;17.02;96.02
34961;BME280;30789;52.030;7.110;2023-07-31T09:07:04;99946.19;;;17.04;96.17
34961;BME280;30789;52.030;7.110;2023-07-31T09:09:33;99940.91;;;17.19;94.60
34961;BME280;30789;52.030;7.110;2023-07-31T09:11:59;99939.28;;;17.08;94.32
34961;BME280;30789;52.030;7.110;2023-07-31T09:14:27;99940.03;;;17.22;94.91
34961;BME280;30789;52.030;7.110;2023-07-31T09:16:54;99942.38;;;17.23;94.39
34961;BME280;30789;52.030;7.110;2023-07-31T09:19:28;99933.00;;;17.17;94.47
34961;BME280;30789;52.030;7.110;2023-07-31T09:21:55;99928.13;;;17.21;93.93
34961;BME280;30789;52.030;7.110;2023-07-31T09:24:25;99944.69;;;17.25;93.76
34961;BME280;30789;52.030;7.110;2023-07-31T09:26:54;99936.50;;;17.08;94.29
34961;BME280;30789;52.030;7.110;2023-07-31T09:29:22;99936.03;;;17.10;95.44
34961;BME280;30789;52.030;7.110;2023-07-31T09:31:50;99937.16;;;17.00;95.57
34961;BME280;30789;52.030;7.110;2023-07-31T09:34:17;99932.81;;;17.12;94.47
34961;BME280;30789;52.030;7.110;2023-07-31T09:36:45;99931.91;;;17.15;93.75
34961;BME280;30789;52.030;7.110;2023-07-31T09:39:12;99942.72;;;17.13;95.50
34961;BME280;30789;52.030;7.110;2023-07-31T09:41:43;99929.78;;;17.31;93.84
34961;BME280;30789;52.030;7.110;2023-07-31T09:44:14;99932.56;;;17.44;94.35
34961;BME280;30789;52.030;7.110;2023-07-31T09:46:40;99938.00;;;17.60;91.58
34961;BME280;30789;52.030;7.110;2023-07-31T09:49:08;99928.53;;;17.45;92.14
34961;BME280;30789;52.030;7.110;2023-07-31T09:51:35;99927.53;;;17.51;93.22
34961;BME280;30789;52.030;7.110;2023-07-31T09:54:08;99930.44;;;17.48;92.50
34961;BME280;30789;52.030;7.110;2023-07-31T09:56:36;99924.06;;;17.60;91.05
34961;BME280;30789;52.030;7.110;2023-07-31T09:59:04;99914.41;;;17.52;91.54
34961;BME280;30789;52.030;7.110;2023-07-31T10:01:32;99924.75;;;17.39;92.68
34961;BME280;30789;52.030;7.110;2023-07-31T10:03:59;99923.31;;;17.34;92.45
34961;BME280;30789;52.030;7.110;2023-07-31T10:06:26;99920.19;;;17.45;93.15
34961;BME280;30789;52.030;7.110;2023-07-31T10:08:53;99919.97;;;17.39;91.50
34961;BME280;30789;52.030;7.110;2023-07-31T10:11:22;99919.09;;;17.30;93.18
34961;BME280;30789;52.030;7.110;2023-07-31T10:13:51;99925.19;;;17.37;92.03
34961;BME280;30789;52.030;7.110;2023-07-31T10:16:19;99931.22;;;17.36;92.47
34961;BME280;30789;52.030;7.110;2023-07-31T10:18:47;99919.97;;;17.39;92.39
34961;BME280;30789;52.030;7.110;2023-07-31T10:21:14;99920.31;;;17.41;92.80
34961;BME280;30789;52.030;7.110;2023-07-31T10:23:42;99918.06;;;17.36;94.17
34961;BME280;30789;52.030;7.110;2023-07-31T10:26:10;99912.97;;;17.22;93.99
34961;BME280;30789;52.030;7.110;2023-07-31T10:28:38;99922.22;;;17.44;93.37
34961;BME280;30789;52.030;7.110;2023-07-31T10:31:05;99929.09;;;17.40;92.22
34961;BME280;30789;52.030;7.110;2023-07-31T10:33:33;99924.09;;;17.35;92.86
34961;BME280;30789;52.030;7.110;2023-07-31T10:36:14;99916.66;;;17.44;94.06
34961;BME280;30789;52.030;7.110;2023-07-31T10:38:41;99914.81;;;17.63;92.21
34961;BME280;30789;52.030;7.110;2023-07-31T10:41:08;99908.00;;;17.64;93.56
34961;BME280;30789;52.030;7.110;2023-07-31T10:43:36;99912.94;;;17.60;92.46
34961;BME280;30789;52.030;7.110;2023-07-31T10:46:06;99917.28;;;17.48;94.34
34961;BME280;30789;52.030;7.110;2023-07-31T10:48:34;99914.06;;;17.37;93.63
34961;BME280;30789;52.030;7.110;2023-07-31T10:51:06;99916.28;;;17.42;93.77
34961;BME280;30789;52.030;7.110;2023-07-31T10:53:34;99911.84;;;17.32;94.34
34961;BME280;30789;52.030;7.110;2023-07-31T10:56:01;99906.63;;;17.22;93.44
34961;BME280;30789;52.030;7.110;2023-07-31T10:58:28;99914.94;;;17.34;94.77
34961;BME280;30789;52.030;7.110;2023-07-31T11:00:57;99913.41;;;17.33;93.49
34961;BME280;30789;52.030;7.110;2023-07-31T11:03:25;99917.44;;;17.32;93.62
34961;BME280;30789;52.030;7.110;2023-07-31T11:05:53;99913.41;;;17.33;93.21
34961;BME280;30789;52.030;7.110;2023-07-31T11:08:21;99912.31;;;17.31;93.64
34961;BME280;30789;52.030;7.110;2023-07-31T11:10:51;99908.28;;;17.32;93.26
34961;BME280;30789;52.030;7.110;2023-07-31T11:13:30;99912.72;;;17.29;93.36
34961;BME280;30789;52.030;7.110;2023-07-31T11:15:57;99913.16;;;17.28;94.74
34961;BME280;30789;52.030;7.110;2023-07-31T11:18:26;99903.28;;;17.27;95.44
34961;BME280;30789;52.030;7.110;2023-07-31T11:20:52;99897.13;;;17.32;94.77
34961;BME280;30789;52.030;7.110;2023-07-31T11:23:20;99910.72;;;17.30;94.84
34961;BME280;30789;52.030;7.110;2023-07-31T11:25:46;99903.97;;;17.18;94.24
34961;BME280;30789;52.030;7.110;2023-07-31T11:28:16;99909.75;;;17.24;94.50
34961;BME280;30789;52.030;7.110;2023-07-31T11:30:44;99908.94;;;17.23;94.67
34961;BME280;30789;52.030;7.110;2023-07-31T11:33:12;99917.53;;;17.29;94.50
34961;BME280;30789;52.030;7.110;2023-07-31T11:35:42;99905.38;;;17.35;94.75
34961;BME280;30789;52.030;7.110;2023-07-31T11:38:10;99904.59;;;17.47;92.96
34961;BME280;30789;52.030;7.110;2023-07-31T11:40:41;99895.16;;;17.32;94.20
34961;BME280;30789;52.030;7.110;2023-07-31T11:43:08;99895.59;;;17.31;94.57
34961;BME280;30789;52.030;7.110;2023-07-31T11:45:39;99895.59;;;17.31;94.21
34961;BME280;30789;52.030;7.110;2023-07-31T11:48:06;99887.31;;;17.40;93.96
34961;BME280;30789;52.030;7.110;2023-07-31T11:50:33;99892.75;;;17.56;93.54
34961;BME280;30789;52.030;7.110;2023-07-31T11:53:06;99882.28;;;17.60;93.11
34961;BME280;30789;52.030;7.110;2023-07-31T11:55:34;99881.03;;;17.61;91.36
34961;BME280;30789;52.030;7.110;2023-07-31T11:58:01;99890.53;;;17.85;91.57
34961;BME280;30789;52.030;7.110;2023-07-31T12:00:28;99899.28;;;17.96;91.90
34961;BME280;30789;52.030;7.110;2023-07-31T12:02:56;99887.94;;;17.90;90.59
34961;BME280;30789;52.030;7.110;2023-07-31T12:05:23;99885.00;;;17.94;91.00
34961;BME280;30789;52.030;7.110;2023-07-31T12:07:50;99888.38;;;18.10;91.07
34961;BME280;30789;52.030;7.110;2023-07-31T12:10:28;99881.91;;;18.13;91.06
34961;BME280;30789;52.030;7.110;2023-07-31T12:12:56;99883.47;;;18.14;91.23
34961;BME280;30789;52.030;7.110;2023-07-31T12:15:29;99886.03;;;18.09;90.01
34961;BME280;30789;52.030;7.110;2023-07-31T12:17:58;99895.78;;;18.04;91.95
34961;BME280;30789;52.030;7.110;2023-07-31T12:20:25;99882.22;;;17.94;90.78
34961;BME280;30789;52.030;7.110;2023-07-31T12:22:52;99881.25;;;17.88;92.65
34961;BME280;30789;52.030;7.110;2023-07-31T12:25:22;99879.31;;;17.97;91.61
34961;BME280;30789;52.030;7.110;2023-07-31T12:27:50;99881.25;;;18.09;91.57
34961;BME280;30789;52.030;7.110;2023-07-31T12:30:27;99874.59;;;17.85;92.11
34961;BME280;30789;52.030;7.110;2023-07-31T12:32:53;99878.50;;;17.75;92.82
34961;BME280;30789;52.030;7.110;2023-07-31T12:35:21;99874.25;;;17.83;92.14
34961;BME280;30789;52.030;7.110;2023-07-31T12:37:48;99878.72;;;17.81;92.95
34961;BME280;30789;52.030;7.110;2023-07-31T12:40:14;99874.97;;;17.75;94.05
34961;BME280;30789;52.030;7.110;2023-07-31T12:42:41;99871.06;;;17.94;91.94
34961;BME280;30789;52.030;7.110;2023-07-31T12:45:08;99880.22;;;17.73;93.78
34961;BME280;30789;52.030;7.110;2023-07-31T12:47:35;99876.53;;;17.76;94.62
34961;BME280;30789;52.030;7.110;2023-07-31T12:50:01;99876.06;;;17.77;93.52
34961;BME280;30789;52.030;7.110;2023-07-31T12:52:29;99874.97;;;17.75;94.24
34961;BME280;30789;52.030;7.110;2023-07-31T12:54:55;99869.53;;;17.71;93.67
34961;BME280;30789;52.030;7.110;2023-07-31T12:57:22;99876.00;;;17.68;93.90
34961;BME280;30789;52.030;7.110;2023-07-31T12:59:48;99872.31;;;17.71;93.40
34961;BME280;30789;52.030;7.110;2023-07-31T13:02:15;99870.50;;;17.77;92.87